Larkspur, CA

6:33 AM PDT on September 22, 2014 (GMT -0700)
Petaluma | Change Station
CLOSE
Current Station
Airport
Location: Petaluma,
Elevation: 89 ft
Nearby Weather Stations

Elev 89 ft 38.26 °N, 122.61 °W | Updated 18 minutes ago

Overcast
Overcast
61 °F
Feels Like 61 °F
N
6
Wind Variable Wind from NW

Today
High -- | Low -- °F
--% Chance of Precip.
Yesterday
High -- | Low -- °F
Precip. -- in
6:58 AM 7:06 PM
Waning Crescent, 3% visible
Pressure 30.02 in
Visibility 10.0 miles
Clouds Overcast 1300 ft
Dew Point 57 °F
Humidity 88%
Rainfall 0.00 in
Snow Depth 1 in , 0 in , 0 in
UV 0 out of 12
Pollen 3.70 out of 12
Air Quality Not available.
Flu Activity Not available.
METAR KO69 221315Z AUTO 32005KT 10SM OVC013 16/14 A3002 RMK AO1

More Conditions Fewer Conditions

Pressure 30.02 in
Visibility 10.0 miles
Clouds Overcast 1300 ft
Dew Point 57 °F
Humidity 88%
Rainfall 0.00 in
Snow Depth 1 in , 0 in , 0 in
UV 0 out of 12
Pollen 3.70 out of 12
Air Quality Not available.
Flu Activity Not available.
METAR KO69 221315Z AUTO 32005KT 10SM OVC013 16/14 A3002 RMK AO1

More Conditions Fewer Conditions

10-Day Weather Forecast

Almanac

Astronomy

Sep. 22, 2014 Rise Set
Actual Time 6:58 AM PDT 7:06 PM PDT
Civil Twilight 6:31 AM PDT 7:33 PM PDT
Nautical Twilight 6:01 AM PDT 8:03 PM PDT
Astronomical Twilight 5:29 AM PDT 8:34 PM PDT
Moon 5:32 AM PDT 6:16 PM PDT
Length of Visible Light 13h 01m
Length of Day
12h 08m
Tomorrow will be 2m 25s shorter.
Waning Crescent, 3% of the Moon is Illuminated
Today
Waning Crescent
Sep 24
New
Oct 1
First Quarter
Oct 8
Full
Oct 15
Last Quarter

Today's Extremes

State Highs State Lows

Community

WunderPhotos

Upload Photos

1,755,429 photos uploaded!

WunderBlogs® & News

Nearby

Air Quality

  Air Quality AQ Index Pollutant
Yesterday Good
OZONE
Monday Good
PM2.5
Tuesday Good
PM2.5
Wednesday Good
OZONE
Thursday Good
OZONE
Friday Good
PM2.5

Snow Depth

Station Depth Elevation
Summit Meadow 1 in 9122 ft
Monitor Pass 0 in 8350 ft
Sonora Pass 0 in 8800 ft
Leavitt Lake 1 in 9400 ft
Spratt Creek 1 in 6200 ft

Earthquake Activity

City Distance Mag. Time & Date
Sonoma, California 28 miles 2.7 1:17 PM PDT
2014-09-21
Cloverdale, California 64 miles 2.5 9:15 PM PDT
2014-09-20
Livermore, California 47 miles 2.6 3:37 AM PDT
2014-09-19
Minimum magnitude displayed is 2.5.

Coastal Water Temperatures

Place Temperature
San Francisco, CA 66.0 °F
Richmond, CA 66.9 °F
Port Chicago, CA 69.1 °F

Nearby Weather Stations